Time;durP1;ratioP1;P1;durP2;ratioP2;P2;SDS_P1;SDS_P2;PMS_P1;PMS_P2;Temp;Humidity;BMP_temperature;BMP_pressure;BME280_temperature;BME280_humidity;BME280_pressure;Samples;Min_cycle;Max_cycle;Signal;HPM_P1;HPM_P2
2021/03/13 00:00:14;;;;;;;1.10;1.10;;;;;;;6.46;65.49;99657.59;687961;28;10567;-62
2021/03/13 00:00:35;;;;;;;1.20;1.10;;;;;;;6.48;65.60;99653.69;683639;28;109727;-63
2021/03/13 00:00:57;;;;;;;1.13;1.10;;;;;;;6.48;65.66;99653.69;686631;28;24341;-64
2021/03/13 00:01:18;;;;;;;1.30;1.20;;;;;;;6.48;66.00;99658.25;686638;28;17864;-62
2021/03/13 00:01:39;;;;;;;1.15;1.15;;;;;;;6.47;65.66;99660.09;686315;28;44449;-61
2021/03/13 00:02:00;;;;;;;0.98;0.98;;;;;;;6.48;65.66;99661.75;686889;28;22369;-63
2021/03/13 00:02:21;;;;;;;0.90;0.90;;;;;;;6.51;65.69;99654.38;687660;28;6879;-62
2021/03/13 00:02:44;;;;;;;0.93;0.93;;;;;;;6.52;65.49;99654.22;687807;28;23196;-64
2021/03/13 00:03:05;;;;;;;1.00;1.00;;;;;;;6.54;65.46;99657.53;685144;28;60428;-62
2021/03/13 00:03:26;;;;;;;1.00;1.00;;;;;;;6.53;65.46;99655.84;686627;28;21514;-64
2021/03/13 00:03:48;;;;;;;1.50;1.10;;;;;;;6.55;65.06;99659.22;686757;28;16520;-63
2021/03/13 00:04:09;;;;;;;1.13;1.08;;;;;;;6.55;65.27;99655.69;686453;28;21609;-62
2021/03/13 00:04:30;;;;;;;1.00;0.95;;;;;;;6.53;65.58;99658.53;685183;28;47230;-60
2021/03/13 00:04:51;;;;;;;0.95;0.95;;;;;;;6.49;65.55;99650.03;686998;28;21600;-61
2021/03/13 00:05:14;;;;;;;0.90;0.90;;;;;;;6.51;65.63;99659.75;690696;28;22186;-64
2021/03/13 00:05:38;;;;;;;1.25;1.10;;;;;;;6.50;65.55;99656.22;687581;28;43897;-61
2021/03/13 00:05:59;;;;;;;0.90;0.90;;;;;;;6.48;65.67;99656.38;684566;28;92050;-63
2021/03/13 00:06:20;;;;;;;1.00;1.00;;;;;;;6.46;65.70;99649.53;686104;28;21525;-63
2021/03/13 00:06:41;;;;;;;1.00;1.00;;;;;;;6.47;65.63;99667.28;686941;28;22793;-60
2021/03/13 00:07:02;;;;;;;1.00;1.00;;;;;;;6.47;65.75;99668.16;685822;28;40659;-64
2021/03/13 00:07:24;;;;;;;1.45;0.90;;;;;;;6.49;65.60;99657.25;686294;28;23468;-63
2021/03/13 00:07:45;;;;;;;1.50;0.90;;;;;;;6.49;65.52;99650.03;687722;28;22292;-61
2021/03/13 00:08:06;;;;;;;1.00;1.00;;;;;;;6.49;65.52;99654.56;686429;28;23440;-61
2021/03/13 00:08:28;;;;;;;1.00;1.00;;;;;;;6.49;65.56;99665.28;687642;28;45247;-64
2021/03/13 00:08:49;;;;;;;1.40;1.10;;;;;;;6.49;65.42;99662.59;689496;28;21572;-64
2021/03/13 00:09:10;;;;;;;2.10;1.10;;;;;;;6.47;65.51;99660.09;689666;28;18344;-63
2021/03/13 00:09:31;;;;;;;1.42;1.10;;;;;;;6.45;65.58;99659.41;688500;28;44079;-62
2021/03/13 00:09:52;;;;;;;1.00;1.00;;;;;;;6.47;65.66;99665.47;689127;28;23320;-61
2021/03/13 00:10:14;;;;;;;1.40;1.20;;;;;;;6.49;65.54;99665.28;690782;28;5984;-62
2021/03/13 00:10:36;;;;;;;0.90;0.90;;;;;;;6.51;65.45;99662.44;687443;28;6949;-62
2021/03/13 00:10:57;;;;;;;0.98;0.98;;;;;;;6.52;65.33;99658.72;685273;28;67073;-62
2021/03/13 00:11:19;;;;;;;1.00;1.00;;;;;;;6.52;65.11;99659.56;687119;28;18181;-62
2021/03/13 00:11:41;;;;;;;1.00;1.00;;;;;;;6.52;65.25;99656.88;686217;28;44402;-62
2021/03/13 00:12:02;;;;;;;1.88;1.20;;;;;;;6.52;65.21;99658.72;686058;28;46362;-61
2021/03/13 00:12:23;;;;;;;1.60;1.13;;;;;;;6.52;65.24;99667.63;686652;28;22406;-62
2021/03/13 00:12:45;;;;;;;1.10;1.10;;;;;;;6.55;65.13;99661.91;687785;28;23480;-63
2021/03/13 00:13:07;;;;;;;0.90;0.90;;;;;;;6.60;64.87;99659.50;686641;28;21410;-62
2021/03/13 00:13:29;;;;;;;1.00;1.00;;;;;;;6.63;64.64;99663.66;685387;28;69165;-62
2021/03/13 00:13:50;;;;;;;0.90;0.90;;;;;;;6.61;64.70;99665.69;687076;28;19909;-61
2021/03/13 00:14:11;;;;;;;1.10;1.10;;;;;;;6.61;64.82;99658.47;686736;28;41014;-63
2021/03/13 00:14:32;;;;;;;1.23;1.23;;;;;;;6.63;64.66;99659.16;686219;28;38672;-63
2021/03/13 00:14:53;;;;;;;1.10;1.10;;;;;;;6.62;64.51;99665.53;687365;28;10903;-61
2021/03/13 00:15:15;;;;;;;1.15;1.15;;;;;;;6.58;64.88;99672.28;687745;28;23484;-62
2021/03/13 00:15:38;;;;;;;1.38;1.08;;;;;;;6.61;64.62;99663.84;685528;28;46362;-59
2021/03/13 00:16:00;;;;;;;0.90;0.90;;;;;;;6.61;64.71;99661.16;685140;28;52923;-63
2021/03/13 00:16:21;;;;;;;0.98;0.88;;;;;;;6.63;64.69;99666.34;686887;28;22233;-63
2021/03/13 00:16:42;;;;;;;1.20;1.00;;;;;;;6.59;64.66;99657.00;686206;28;23396;-60
2021/03/13 00:17:03;;;;;;;1.03;1.03;;;;;;;6.57;64.51;99667.91;685482;28;44259;-62
2021/03/13 00:17:24;;;;;;;1.10;1.10;;;;;;;6.56;64.89;99660.03;686105;28;44769;-60
2021/03/13 00:17:47;;;;;;;1.00;1.00;;;;;;;6.54;64.94;99670.94;688140;28;14286;-63
2021/03/13 00:18:09;;;;;;;1.00;1.00;;;;;;;6.54;64.75;99662.06;685075;28;69428;-63
2021/03/13 00:18:30;;;;;;;1.08;1.08;;;;;;;6.54;65.03;99657.53;685978;28;46349;-63
2021/03/13 00:18:52;;;;;;;1.10;1.00;;;;;;;6.52;64.98;99659.56;687128;28;19737;-62
2021/03/13 00:19:13;;;;;;;1.00;1.00;;;;;;;6.53;65.04;99668.44;686551;28;42699;-62
2021/03/13 00:19:34;;;;;;;1.00;1.00;;;;;;;6.54;64.86;99670.13;687021;28;23396;-64
2021/03/13 00:19:55;;;;;;;1.08;1.08;;;;;;;6.55;64.89;99680.69;686248;28;23397;-63
2021/03/13 00:20:18;;;;;;;0.90;0.90;;;;;;;6.61;64.64;99657.66;688858;28;949;-62
2021/03/13 00:20:40;;;;;;;1.23;1.00;;;;;;;6.60;64.50;99664.88;684684;28;68321;-62
2021/03/13 00:21:02;;;;;;;1.55;1.10;;;;;;;6.56;64.68;99660.88;685186;28;61592;-62
2021/03/13 00:21:23;;;;;;;0.93;0.93;;;;;;;6.56;64.75;99660.88;686035;28;33016;-62
2021/03/13 00:21:44;;;;;;;1.20;1.10;;;;;;;6.55;64.66;99653.84;686082;28;23483;-62
2021/03/13 00:22:06;;;;;;;1.10;1.10;;;;;;;6.54;64.84;99662.91;686400;28;23501;-62
2021/03/13 00:22:27;;;;;;;1.20;1.10;;;;;;;6.51;64.88;99663.25;686427;28;23437;-62
2021/03/13 00:22:48;;;;;;;1.20;1.10;;;;;;;6.47;65.04;99659.25;687561;28;23532;-62
2021/03/13 00:23:09;;;;;;;0.90;0.90;;;;;;;6.48;65.14;99660.94;685657;28;46344;-62
2021/03/13 00:23:31;;;;;;;0.90;0.90;;;;;;;6.48;64.95;99664.44;686842;28;22384;-62
2021/03/13 00:23:54;;;;;;;3.65;0.90;;;;;;;6.48;65.00;99659.06;687967;28;46403;-62
2021/03/13 00:24:15;;;;;;;1.58;1.17;;;;;;;6.47;65.10;99673.50;685404;28;69309;-61
2021/03/13 00:24:37;;;;;;;1.05;1.05;;;;;;;6.53;64.93;99661.22;686495;28;23466;-62
2021/03/13 00:24:58;;;;;;;0.98;0.98;;;;;;;6.54;64.94;99665.59;685957;28;21365;-62
2021/03/13 00:25:20;;;;;;;1.00;1.00;;;;;;;6.57;64.58;99672.47;687423;28;46314;-62
2021/03/13 00:25:42;;;;;;;0.93;0.93;;;;;;;6.56;64.60;99671.59;685136;28;44406;-64
2021/03/13 00:26:03;;;;;;;0.93;0.90;;;;;;;6.52;64.69;99664.94;686653;28;22408;-63
2021/03/13 00:26:24;;;;;;;0.98;0.95;;;;;;;6.52;64.96;99672.97;686206;28;26966;-64
2021/03/13 00:26:46;;;;;;;1.10;1.10;;;;;;;6.51;64.84;99662.44;686294;28;22409;-65
2021/03/13 00:27:07;;;;;;;1.00;1.00;;;;;;;6.49;65.03;99663.44;687945;28;22370;-63
2021/03/13 00:27:28;;;;;;;1.17;1.10;;;;;;;6.49;65.04;99670.66;686462;28;23452;-62
2021/03/13 00:27:50;;;;;;;1.20;1.10;;;;;;;6.49;64.96;99668.81;687346;28;13419;-62
2021/03/13 00:28:11;;;;;;;0.95;0.95;;;;;;;6.52;64.94;99680.19;686253;28;45977;-62
2021/03/13 00:28:33;;;;;;;1.00;1.00;;;;;;;6.55;64.71;99669.94;686909;28;23355;-61
2021/03/13 00:28:55;;;;;;;0.90;0.90;;;;;;;6.57;64.67;99673.28;684997;28;69362;-62
2021/03/13 00:29:16;;;;;;;1.00;1.00;;;;;;;6.61;64.53;99669.22;686694;28;7893;-62
2021/03/13 00:29:37;;;;;;;1.73;1.40;;;;;;;6.62;64.37;99673.56;688126;28;23663;-63
2021/03/13 00:29:58;;;;;;;1.20;1.20;;;;;;;6.62;64.33;99670.88;685341;28;46332;-63
2021/03/13 00:30:21;;;;;;;1.10;1.10;;;;;;;6.60;64.28;99661.34;687105;28;22401;-63
2021/03/13 00:30:43;;;;;;;0.93;0.93;;;;;;;6.62;64.21;99668.22;685744;28;45258;-63
2021/03/13 00:31:05;;;;;;;0.90;0.90;;;;;;;6.61;64.30;99669.22;686101;28;62054;-63
2021/03/13 00:31:26;;;;;;;1.00;0.90;;;;;;;6.61;64.48;99679.94;686953;28;36056;-63
2021/03/13 00:31:52;;;;;;;1.02;1.02;;;;;;;6.65;64.23;99675.06;687670;28;18813;-63
2021/03/13 00:32:13;;;;;;;1.20;1.10;;;;;;;6.68;64.12;99680.91;684733;28;132229;-63
2021/03/13 00:32:34;;;;;;;1.33;1.23;;;;;;;6.72;63.96;99677.88;687629;28;3331;-63
2021/03/13 00:32:57;;;;;;;1.20;1.10;;;;;;;6.70;64.19;99680.75;687588;28;15367;-64
2021/03/13 00:33:20;;;;;;;1.13;1.08;;;;;;;6.71;64.17;99678.88;685256;28;69369;-62
2021/03/13 00:33:42;;;;;;;0.95;0.90;;;;;;;6.67;63.94;99678.41;686044;28;58053;-63
2021/03/13 00:34:04;;;;;;;0.90;0.90;;;;;;;6.66;64.26;99669.53;687555;28;8118;-63
2021/03/13 00:34:25;;;;;;;0.90;0.90;;;;;;;6.63;64.41;99677.94;687406;28;22467;-62
2021/03/13 00:34:46;;;;;;;0.95;0.90;;;;;;;6.64;64.41;99670.72;688719;28;22463;-61
2021/03/13 00:35:08;;;;;;;0.95;0.95;;;;;;;6.61;64.26;99665.69;688174;28;2472;-61
2021/03/13 00:35:39;;;;;;;2.70;2.53;;;;;;;6.61;64.58;99666.53;685449;28;59212;-61
2021/03/13 00:36:00;;;;;;;10.48;7.10;;;;;;;6.60;64.66;99678.28;686224;28;46273;-62
2021/03/13 00:36:22;;;;;;;25.77;14.80;;;;;;;6.59;64.81;99670.41;686307;28;43234;-60
2021/03/13 00:36:43;;;;;;;10.63;6.78;;;;;;;6.58;64.81;99671.41;687386;28;23537;-62
2021/03/13 00:37:06;;;;;;;2.45;2.25;;;;;;;6.60;65.01;99686.34;689076;28;1038;-62
2021/03/13 00:37:27;;;;;;;1.30;1.20;;;;;;;6.61;64.77;99682.63;685327;28;67474;-64
2021/03/13 00:37:49;;;;;;;1.40;1.30;;;;;;;6.62;64.75;99678.13;687089;28;22396;-63
2021/03/13 00:38:11;;;;;;;1.70;1.25;;;;;;;6.60;64.68;99675.59;687718;28;1184;-62
2021/03/13 00:38:33;;;;;;;1.30;1.20;;;;;;;6.60;64.77;99674.75;687133;28;12467;-63
2021/03/13 00:38:54;;;;;;;1.20;1.10;;;;;;;6.57;64.80;99673.28;687146;28;24427;-63
2021/03/13 00:39:15;;;;;;;0.98;0.98;;;;;;;6.57;64.98;99673.28;686861;28;23366;-59
2021/03/13 00:39:36;;;;;;;1.25;1.00;;;;;;;6.57;65.02;99677.81;685620;28;1176;-63
2021/03/13 00:39:57;;;;;;;0.90;0.90;;;;;;;6.58;64.94;99687.53;686380;28;23547;-61
2021/03/13 00:40:20;;;;;;;1.17;1.00;;;;;;;6.62;64.63;99678.13;686798;28;23597;-64
2021/03/13 00:40:42;;;;;;;1.00;1.00;;;;;;;6.63;64.99;99685.13;685722;28;52211;-62
2021/03/13 00:41:04;;;;;;;1.00;1.00;;;;;;;6.63;64.56;99683.31;685536;28;45387;-63
2021/03/13 00:41:25;;;;;;;1.00;1.00;;;;;;;6.64;64.70;99666.19;687028;28;22086;-63
2021/03/13 00:41:46;;;;;;;1.20;1.00;;;;;;;6.64;64.55;99670.72;687289;28;23135;-64
2021/03/13 00:42:08;;;;;;;1.10;1.00;;;;;;;6.60;64.64;99667.56;686484;28;47301;-62
2021/03/13 00:42:29;;;;;;;1.10;1.00;;;;;;;6.59;64.70;99670.41;687071;28;23476;-60
2021/03/13 00:42:50;;;;;;;0.93;0.93;;;;;;;6.65;64.59;99677.75;687456;28;46206;-63
2021/03/13 00:43:13;;;;;;;0.90;0.90;;;;;;;6.64;64.51;99668.84;687359;28;22425;-63
2021/03/13 00:43:35;;;;;;;1.13;1.10;;;;;;;6.62;64.95;99670.06;687706;28;69644;-64
2021/03/13 00:43:56;;;;;;;1.00;1.00;;;;;;;6.61;64.88;99673.75;688835;28;45170;-64
2021/03/13 00:44:17;;;;;;;0.90;0.90;;;;;;;6.59;64.86;99683.84;689974;28;22636;-62
2021/03/13 00:44:38;;;;;;;1.20;1.00;;;;;;;6.55;65.09;99666.41;688404;28;46368;-63
2021/03/13 00:44:59;;;;;;;0.93;0.93;;;;;;;6.56;64.83;99671.59;690017;28;22392;-63
2021/03/13 00:45:23;;;;;;;0.98;0.88;;;;;;;6.51;65.00;99671.31;690386;28;24230;-63
2021/03/13 00:45:45;;;;;;;1.17;1.08;;;;;;;6.54;65.33;99678.16;685083;28;68587;-64
2021/03/13 00:46:06;;;;;;;1.10;1.02;;;;;;;6.54;65.27;99678.16;686918;28;41790;-63
2021/03/13 00:46:27;;;;;;;1.05;1.00;;;;;;;6.54;65.16;99668.25;687193;28;23427;-64
2021/03/13 00:46:48;;;;;;;1.30;1.10;;;;;;;6.54;64.99;99670.94;686742;28;45279;-64
2021/03/13 00:47:10;;;;;;;1.40;1.00;;;;;;;6.54;65.03;99673.63;688464;28;22445;-64
2021/03/13 00:47:36;;;;;;;1.80;1.30;;;;;;;6.53;65.06;99673.81;688091;28;44147;-62
2021/03/13 00:47:58;;;;;;;1.00;1.00;;;;;;;6.55;65.07;99672.63;685660;28;138183;-60
2021/03/13 00:48:19;;;;;;;1.38;1.10;;;;;;;6.56;65.07;99665.41;688395;28;47604;-62
2021/03/13 00:48:40;;;;;;;1.30;1.20;;;;;;;6.57;65.05;99686.69;689814;28;23468;-62
2021/03/13 00:49:02;;;;;;;1.02;1.02;;;;;;;6.57;65.06;99678.66;689211;28;10087;-62
2021/03/13 00:49:23;;;;;;;1.17;1.08;;;;;;;6.60;64.95;99680.13;686337;28;47143;-61
2021/03/13 00:49:44;;;;;;;1.27;1.10;;;;;;;6.61;64.83;99684.47;687419;28;21592;-63
2021/03/13 00:50:08;;;;;;;1.10;1.00;;;;;;;6.63;64.83;99677.94;687810;28;22427;-62
2021/03/13 00:50:30;;;;;;;1.80;0.90;;;;;;;6.62;64.79;99676.25;684881;28;67865;-63
2021/03/13 00:50:52;;;;;;;0.93;0.93;;;;;;;6.60;64.81;99672.94;684698;28;67329;-61
2021/03/13 00:51:13;;;;;;;1.00;1.00;;;;;;;6.57;64.94;99678.66;686298;28;47478;-63
2021/03/13 00:51:34;;;;;;;1.60;1.10;;;;;;;6.54;65.02;99673.63;686535;28;23459;-64
2021/03/13 00:51:55;;;;;;;1.40;1.30;;;;;;;6.55;64.99;99683.38;686400;28;21516;-63
2021/03/13 00:52:16;;;;;;;1.42;1.33;;;;;;;6.56;64.91;99671.59;687063;28;24335;-61
2021/03/13 00:52:38;;;;;;;0.90;0.90;;;;;;;6.54;65.43;99678.16;685653;28;22500;-63
2021/03/13 00:52:59;;;;;;;0.90;0.90;;;;;;;6.55;65.14;99690.56;686057;28;46188;-63
2021/03/13 00:53:21;;;;;;;1.00;0.90;;;;;;;6.56;64.97;99676.97;686451;28;21568;-63
2021/03/13 00:53:42;;;;;;;1.02;1.02;;;;;;;6.55;64.85;99678.00;684535;28;11191;-64
2021/03/13 00:54:03;;;;;;;1.60;1.20;;;;;;;6.61;64.66;99668.38;684433;28;17860;-63
2021/03/13 00:54:24;;;;;;;1.27;1.10;;;;;;;6.65;64.43;99675.91;683801;28;46346;-63
2021/03/13 00:54:45;;;;;;;1.25;1.02;;;;;;;6.65;64.43;99669.72;686998;28;23424;-64
2021/03/13 00:55:08;;;;;;;1.15;1.00;;;;;;;6.63;64.50;99675.25;687802;28;22398;-63
2021/03/13 00:55:31;;;;;;;1.00;1.00;;;;;;;6.61;64.53;99673.75;684697;28;91840;-64
2021/03/13 00:55:57;;;;;;;1.20;1.10;;;;;;;6.63;64.48;99677.94;683108;28;137985;-63
2021/03/13 00:56:23;;;;;;;1.05;0.98;;;;;;;6.67;64.35;99665.81;682241;28;160974;-64
2021/03/13 00:56:44;;;;;;;1.20;1.10;;;;;;;6.65;64.47;99664.34;683582;28;46648;-64
2021/03/13 00:57:05;;;;;;;1.00;1.00;;;;;;;6.63;64.60;99671.72;684255;28;21301;-64
2021/03/13 00:57:27;;;;;;;1.40;1.30;;;;;;;6.64;64.51;99678.75;681804;29;22403;-63
2021/03/13 00:57:48;;;;;;;1.38;1.33;;;;;;;6.63;64.52;99666.34;681617;29;34037;-62
2021/03/13 00:58:10;;;;;;;1.10;1.10;;;;;;;6.62;64.59;99670.88;683000;28;1407;-62
2021/03/13 00:58:39;;;;;;;1.20;1.10;;;;;;;6.58;64.70;99672.28;682235;28;136343;-62
2021/03/13 00:59:00;;;;;;;0.93;0.93;;;;;;;6.54;64.80;99670.13;683592;28;39150;-61
2021/03/13 00:59:22;;;;;;;1.10;1.00;;;;;;;6.56;64.82;99670.78;682812;28;24368;-62
2021/03/13 00:59:43;;;;;;;1.02;1.00;;;;;;;6.54;64.71;99662.91;681451;28;23403;-62
2021/03/13 01:00:07;;;;;;;1.13;1.10;;;;;;;6.50;64.87;99672.31;682516;28;4206;-62
2021/03/13 01:00:29;;;;;;;1.00;1.00;;;;;;;6.53;65.10;99665.75;678576;29;115324;-64
2021/03/13 01:00:51;;;;;;;1.00;1.00;;;;;;;6.53;64.92;99653.16;681588;28;58198;-64
2021/03/13 01:01:17;;;;;;;1.00;1.00;;;;;;;6.52;64.88;99658.72;682023;28;138858;-64
2021/03/13 01:01:39;;;;;;;1.23;1.23;;;;;;;6.51;64.83;99657.88;688227;28;22385;-64
2021/03/13 01:02:00;;;;;;;1.27;1.17;;;;;;;6.55;64.71;99653.00;689960;28;22362;-64
2021/03/13 01:02:21;;;;;;;1.10;1.10;;;;;;;6.56;64.71;99657.38;689255;28;44691;-64
2021/03/13 01:02:42;;;;;;;1.60;1.10;;;;;;;6.56;64.81;99662.72;690660;28;24310;-64
2021/03/13 01:03:04;;;;;;;1.48;1.00;;;;;;;6.57;64.72;99661.72;689743;28;22376;-64
2021/03/13 01:03:28;;;;;;;1.30;1.10;;;;;;;6.55;64.94;99658.34;687129;28;90316;-64
2021/03/13 01:03:49;;;;;;;1.02;1.02;;;;;;;6.55;65.03;99661.03;688983;28;46071;-64
2021/03/13 01:04:10;;;;;;;1.02;1.02;;;;;;;6.54;65.10;99656.72;689400;28;18347;-63
2021/03/13 01:04:31;;;;;;;1.00;0.98;;;;;;;6.53;65.09;99663.91;688945;28;18690;-63
2021/03/13 01:04:53;;;;;;;1.20;1.10;;;;;;;6.54;64.97;99654.84;689363;28;23614;-63
2021/03/13 01:05:16;;;;;;;1.05;1.05;;;;;;;6.57;64.87;99664.41;688860;28;46348;-62
2021/03/13 01:05:40;;;;;;;1.30;1.20;;;;;;;6.56;65.05;99658.19;679313;28;116031;-62
2021/03/13 01:06:02;;;;;;;1.02;1.00;;;;;;;6.57;64.83;99661.72;684341;28;47552;-62
2021/03/13 01:06:27;;;;;;;1.30;1.20;;;;;;;6.61;64.62;99655.78;681533;28;115139;-62
2021/03/13 01:06:48;;;;;;;1.55;1.25;;;;;;;6.64;64.49;99658.13;685877;28;3136;-62
2021/03/13 01:07:09;;;;;;;1.15;1.13;;;;;;;6.70;64.35;99659.28;685202;28;23531;-62
2021/03/13 01:07:36;;;;;;;1.25;1.15;;;;;;;6.72;64.20;99659.91;681354;28;23890;-62
2021/03/13 01:08:00;;;;;;;1.40;1.20;;;;;;;6.72;64.31;99662.59;680429;29;60527;-62
2021/03/13 01:08:21;;;;;;;1.30;1.20;;;;;;;6.74;64.28;99649.88;680016;29;40361;-62
2021/03/13 01:08:46;;;;;;;1.10;1.05;;;;;;;6.74;63.97;99644.50;675881;29;116087;-62
2021/03/13 01:09:15;;;;;;;1.27;1.20;;;;;;;6.72;64.22;99662.59;675339;29;135425;-62
2021/03/13 01:09:37;;;;;;;1.23;1.15;;;;;;;6.70;64.27;99656.59;682008;29;18316;-62
2021/03/13 01:09:58;;;;;;;1.20;1.10;;;;;;;6.70;64.08;99653.91;681264;28;22370;-62
2021/03/13 01:10:24;;;;;;;1.75;1.20;;;;;;;6.64;64.65;99655.44;683820;28;52100;-62
2021/03/13 01:10:46;;;;;;;1.08;1.08;;;;;;;6.65;64.44;99658.97;679681;28;125070;-62
2021/03/13 01:11:09;;;;;;;1.38;1.27;;;;;;;6.64;64.46;99662.66;681183;28;57644;-62
2021/03/13 01:11:36;;;;;;;7.38;5.95;;;;;;;6.65;64.45;99657.13;677178;28;138717;-62
2021/03/13 01:12:00;;;;;;;5.22;3.17;;;;;;;6.64;64.60;99657.31;677772;29;63321;-62
2021/03/13 01:12:21;;;;;;;2.42;2.15;;;;;;;6.64;64.50;99660.81;678669;29;24634;-62
2021/03/13 01:12:43;;;;;;;1.42;1.33;;;;;;;6.65;64.46;99667.03;681879;29;23496;-62
2021/03/13 01:13:05;;;;;;;1.30;1.10;;;;;;;6.69;64.22;99662.97;679799;29;41503;-62
2021/03/13 01:13:26;;;;;;;1.27;1.00;;;;;;;6.67;64.43;99670.34;681889;28;47404;-63
2021/03/13 01:13:50;;;;;;;1.30;1.20;;;;;;;6.72;64.27;99669.81;679887;28;69352;-63
2021/03/13 01:14:12;;;;;;;1.23;1.17;;;;;;;6.72;64.11;99657.25;681780;28;59966;-62
2021/03/13 01:14:39;;;;;;;1.20;1.20;;;;;;;6.71;64.17;99668.16;679747;29;61829;-60
2021/03/13 01:15:06;;;;;;;1.30;1.20;;;;;;;6.70;64.19;99653.91;679960;28;42111;-61
2021/03/13 01:15:28;;;;;;;1.15;1.15;;;;;;;6.71;64.15;99668.16;674956;29;137739;-61
2021/03/13 01:15:51;;;;;;;1.40;1.30;;;;;;;6.76;63.86;99671.16;678749;29;93225;-62
2021/03/13 01:16:13;;;;;;;1.30;1.20;;;;;;;6.77;63.87;99657.56;681617;28;21484;-62
2021/03/13 01:16:35;;;;;;;1.10;1.10;;;;;;;6.75;63.89;99664.09;681238;28;69288;-62
2021/03/13 01:16:56;;;;;;;1.00;1.00;;;;;;;6.77;63.80;99662.06;686202;28;22245;-62
2021/03/13 01:17:19;;;;;;;1.50;1.05;;;;;;;6.73;64.05;99656.22;687133;28;46412;-62
2021/03/13 01:17:40;;;;;;;1.45;1.20;;;;;;;6.68;64.13;99656.75;690625;28;18064;-64
2021/03/13 01:18:04;;;;;;;1.27;1.17;;;;;;;6.69;64.19;99660.28;688595;28;41029;-63
2021/03/13 01:18:25;;;;;;;1.38;1.27;;;;;;;6.69;64.23;99665.63;686366;28;92415;-63
2021/03/13 01:18:46;;;;;;;1.20;1.20;;;;;;;6.66;64.39;99666.84;686578;28;22406;-61
2021/03/13 01:19:15;;;;;;;1.13;1.02;;;;;;;6.65;64.40;99664.34;680182;28;137709;-63
2021/03/13 01:19:36;;;;;;;1.10;1.10;;;;;;;6.58;64.63;99658.00;682994;28;45413;-62
2021/03/13 01:19:57;;;;;;;1.17;1.10;;;;;;;6.64;64.62;99681.44;683807;28;22515;-63
2021/03/13 01:20:20;;;;;;;1.75;1.30;;;;;;;6.68;64.48;99674.72;685325;28;23412;-62
2021/03/13 01:20:41;;;;;;;1.00;1.00;;;;;;;6.67;64.75;99673.03;681878;28;46364;-62
2021/03/13 01:21:03;;;;;;;1.00;1.00;;;;;;;6.66;64.56;99664.16;682370;28;23288;-62
2021/03/13 01:21:32;;;;;;;2.90;1.38;;;;;;;6.70;64.32;99679.91;677127;28;137967;-62
2021/03/13 01:21:55;;;;;;;1.33;1.25;;;;;;;6.73;63.97;99668.81;679961;29;69402;-61
2021/03/13 01:22:16;;;;;;;1.38;1.10;;;;;;;6.73;63.95;99676.88;681237;29;23288;-61
2021/03/13 01:22:38;;;;;;;1.98;1.17;;;;;;;6.71;64.19;99671.69;684108;28;21529;-63
2021/03/13 01:22:59;;;;;;;2.10;1.50;;;;;;;6.75;63.92;99664.94;684949;28;46383;-60
2021/03/13 01:23:20;;;;;;;1.45;1.35;;;;;;;6.75;63.92;99666.78;686570;28;22441;-62
2021/03/13 01:23:41;;;;;;;1.40;1.30;;;;;;;6.74;64.05;99657.91;687122;28;19814;-62
2021/03/13 01:24:05;;;;;;;1.23;1.13;;;;;;;6.70;64.06;99656.59;682117;28;64414;-62
2021/03/13 01:24:31;;;;;;;1.83;1.20;;;;;;;6.71;64.27;99657.41;679537;28;154554;-62
2021/03/13 01:24:52;;;;;;;2.25;1.27;;;;;;;6.73;64.02;99664.28;682272;28;21336;-62
2021/03/13 01:25:14;;;;;;;2.20;1.20;;;;;;;6.70;64.08;99655.75;684977;28;23475;-63
2021/03/13 01:25:35;;;;;;;1.90;1.20;;;;;;;6.70;64.14;99659.28;683317;28;46429;-63
2021/03/13 01:25:57;;;;;;;1.20;1.20;;;;;;;6.71;64.15;99650.22;685085;28;23545;-63
2021/03/13 01:26:18;;;;;;;1.80;1.25;;;;;;;6.70;64.17;99650.41;683056;28;46400;-63
2021/03/13 01:26:40;;;;;;;1.38;1.27;;;;;;;6.75;63.97;99659.56;685074;28;22552;-63
2021/03/13 01:27:04;;;;;;;1.40;1.30;;;;;;;6.75;63.94;99653.38;684679;28;89083;-63
2021/03/13 01:27:28;;;;;;;1.08;1.08;;;;;;;6.72;63.97;99654.56;687214;28;15299;-62
2021/03/13 01:27:49;;;;;;;1.30;1.20;;;;;;;6.71;64.02;99669.00;687267;28;22572;-62
2021/03/13 01:28:10;;;;;;;1.30;1.20;;;;;;;6.74;63.92;99657.06;687246;28;48042;-64
2021/03/13 01:28:31;;;;;;;2.72;1.30;;;;;;;6.75;63.77;99658.75;689452;28;23912;-61
2021/03/13 01:28:53;;;;;;;1.70;1.33;;;;;;;6.73;63.92;99656.22;689872;28;13592;-64
2021/03/13 01:29:41;;;;;;;1.80;1.50;;;;;;;6.71;63.96;99655.59;683053;28;150120;-61
2021/03/13 01:30:08;;;;;;;2.38;1.45;;;;;;;6.71;64.07;99652.03;689062;28;36510;-64
2021/03/13 01:30:41;;;;;;;2.30;1.30;;;;;;;6.72;64.07;99648.34;686250;28;81302;-61
2021/03/13 01:31:03;;;;;;;1.38;1.20;;;;;;;6.69;63.90;99644.19;685861;28;61704;-62
2021/03/13 01:31:28;;;;;;;2.17;2.00;;;;;;;6.72;64.06;99661.78;682049;28;92214;-64
2021/03/13 01:31:49;;;;;;;2.08;1.98;;;;;;;6.73;63.81;99652.72;680628;29;30231;-62
2021/03/13 01:32:14;;;;;;;1.70;1.60;;;;;;;6.75;63.78;99658.75;679178;28;108058;-62
2021/03/13 01:32:36;;;;;;;1.70;1.60;;;;;;;6.75;63.83;99656.06;682864;29;23489;-62
2021/03/13 01:32:58;;;;;;;2.30;1.42;;;;;;;6.73;64.07;99650.03;679931;29;46374;-64
2021/03/13 01:33:19;;;;;;;4.53;3.15;;;;;;;6.71;64.12;99650.22;679237;29;34573;-64
2021/03/13 01:33:40;;;;;;;2.97;2.72;;;;;;;6.72;64.12;99665.28;682420;28;22052;-62
2021/03/13 01:34:01;;;;;;;1.67;1.58;;;;;;;6.71;63.98;99655.59;684546;28;23509;-64
2021/03/13 01:34:22;;;;;;;1.50;1.40;;;;;;;6.72;63.91;99649.19;684029;28;22421;-63
2021/03/13 01:34:52;;;;;;;2.15;1.40;;;;;;;6.68;64.09;99647.88;678763;28;148427;-62
2021/03/13 01:35:14;;;;;;;1.50;1.40;;;;;;;6.68;64.08;99650.56;683841;28;43064;-62
2021/03/13 01:35:35;;;;;;;1.58;1.48;;;;;;;6.69;64.16;99641.50;683166;28;46502;-63
2021/03/13 01:35:57;;;;;;;1.50;1.40;;;;;;;6.70;64.04;99664.63;683231;28;45291;-61
2021/03/13 01:36:20;;;;;;;1.20;1.20;;;;;;;6.73;64.31;99652.72;678983;29;66478;-63
2021/03/13 01:36:41;;;;;;;1.10;1.10;;;;;;;6.71;63.97;99644.84;681215;28;22393;-62
2021/03/13 01:37:03;;;;;;;1.40;1.30;;;;;;;6.69;64.03;99652.22;682029;28;22397;-63
2021/03/13 01:37:29;;;;;;;1.47;1.37;;;;;;;6.72;64.09;99654.56;676999;28;102874;-63
2021/03/13 01:37:57;;;;;;;1.48;1.38;;;;;;;6.72;63.86;99657.25;677515;28;137817;-61
2021/03/13 01:38:18;;;;;;;1.50;1.40;;;;;;;6.74;64.17;99659.75;683062;28;42376;-63
2021/03/13 01:38:39;;;;;;;1.48;1.38;;;;;;;6.76;64.03;99650.50;681426;29;23392;-60
2021/03/13 01:39:04;;;;;;;1.30;1.27;;;;;;;6.73;63.92;99650.03;682982;28;59101;-61
2021/03/13 01:39:26;;;;;;;1.17;1.17;;;;;;;6.73;64.04;99656.22;684580;28;70801;-61
2021/03/13 01:39:47;;;;;;;1.52;1.42;;;;;;;6.74;63.97;99667.78;686470;28;21346;-59
2021/03/13 01:40:15;;;;;;;1.50;1.40;;;;;;;6.76;63.89;99652.38;680929;28;134844;-62
2021/03/13 01:40:39;;;;;;;1.30;1.20;;;;;;;6.77;63.65;99660.25;683950;28;67566;-62
2021/03/13 01:41:01;;;;;;;1.20;1.20;;;;;;;6.80;63.74;99645.59;685375;28;69462;-60
2021/03/13 01:41:22;;;;;;;2.00;1.40;;;;;;;6.80;63.68;99659.03;686282;28;44280;-62
2021/03/13 01:41:43;;;;;;;1.50;1.10;;;;;;;6.82;63.59;99657.03;681666;28;23321;-61
2021/03/13 01:42:05;;;;;;;1.20;1.10;;;;;;;6.85;63.43;99643.25;684472;28;22161;-62
2021/03/13 01:42:26;;;;;;;1.40;1.30;;;;;;;6.81;63.58;99645.44;683803;28;46425;-61
2021/03/13 01:42:57;;;;;;;1.70;1.30;;;;;;;6.79;63.85;99643.97;682232;28;136144;-62
2021/03/13 01:43:23;;;;;;;1.30;1.30;;;;;;;6.78;63.66;99648.47;680258;28;138059;-63
2021/03/13 01:43:44;;;;;;;2.28;1.30;;;;;;;6.78;63.83;99640.41;683518;28;20343;-63
2021/03/13 01:44:07;;;;;;;1.58;1.10;;;;;;;6.76;63.85;99642.47;678292;29;46335;-59
2021/03/13 01:44:29;;;;;;;1.13;1.13;;;;;;;6.74;63.63;99649.00;680632;29;46320;-61
2021/03/13 01:44:50;;;;;;;1.90;1.30;;;;;;;6.76;63.61;99650.50;679522;29;46430;-62
2021/03/13 01:45:13;;;;;;;1.80;1.27;;;;;;;6.78;63.64;99642.28;681116;29;23460;-62
2021/03/13 01:45:34;;;;;;;1.80;1.27;;;;;;;6.81;63.59;99648.13;679119;28;67481;-62
2021/03/13 01:45:55;;;;;;;1.90;1.17;;;;;;;6.79;63.33;99639.41;678591;29;23460;-62
2021/03/13 01:46:17;;;;;;;1.30;1.23;;;;;;;6.81;63.62;99639.25;680530;28;23446;-61
2021/03/13 01:46:38;;;;;;;2.50;1.30;;;;;;;6.80;63.61;99642.94;681066;29;45270;-62
2021/03/13 01:47:01;;;;;;;2.83;1.50;;;;;;;6.81;63.77;99640.06;681613;28;41588;-60
2021/03/13 01:47:23;;;;;;;1.35;1.23;;;;;;;6.78;63.80;99639.59;683477;28;45404;-62